sensor_id;sensor_type;location;lat;lon;timestamp;P1;durP1;ratioP1;P2;durP2;ratioP2
17566;SDS011;8901;52.088;5.084;2023-02-15T00:02:02;34.50;;;30.77;;
17566;SDS011;8901;52.088;5.084;2023-02-15T00:04:29;33.13;;;29.63;;
17566;SDS011;8901;52.088;5.084;2023-02-15T00:07:10;34.67;;;30.97;;
17566;SDS011;8901;52.088;5.084;2023-02-15T00:09:38;35.00;;;31.20;;
17566;SDS011;8901;52.088;5.084;2023-02-15T00:12:06;34.50;;;31.00;;
17566;SDS011;8901;52.088;5.084;2023-02-15T00:14:33;34.80;;;30.83;;
17566;SDS011;8901;52.088;5.084;2023-02-15T00:17:01;34.33;;;30.33;;
17566;SDS011;8901;52.088;5.084;2023-02-15T00:22:17;32.33;;;29.03;;
17566;SDS011;8901;52.088;5.084;2023-02-15T00:24:51;35.83;;;30.43;;
17566;SDS011;8901;52.088;5.084;2023-02-15T00:27:26;34.13;;;29.50;;
17566;SDS011;8901;52.088;5.084;2023-02-15T00:30:11;33.40;;;29.80;;
17566;SDS011;8901;52.088;5.084;2023-02-15T00:32:48;31.97;;;28.73;;
17566;SDS011;8901;52.088;5.084;2023-02-15T00:38:04;35.00;;;31.20;;
17566;SDS011;8901;52.088;5.084;2023-02-15T00:40:51;33.83;;;30.30;;
17566;SDS011;8901;52.088;5.084;2023-02-15T00:43:26;33.37;;;30.07;;
17566;SDS011;8901;52.088;5.084;2023-02-15T00:46:01;33.73;;;30.17;;
17566;SDS011;8901;52.088;5.084;2023-02-15T01:00:07;34.97;;;31.13;;
17566;SDS011;8901;52.088;5.084;2023-02-15T01:02:35;33.93;;;30.30;;
17566;SDS011;8901;52.088;5.084;2023-02-15T01:05:10;33.17;;;29.57;;
17566;SDS011;8901;52.088;5.084;2023-02-15T01:10:33;33.57;;;29.93;;
17566;SDS011;8901;52.088;5.084;2023-02-15T01:18:27;35.70;;;31.83;;
17566;SDS011;8901;52.088;5.084;2023-02-15T01:24:10;33.63;;;29.70;;
17566;SDS011;8901;52.088;5.084;2023-02-15T01:26:44;33.47;;;29.43;;
17566;SDS011;8901;52.088;5.084;2023-02-15T01:29:26;35.37;;;30.67;;
17566;SDS011;8901;52.088;5.084;2023-02-15T01:40:36;28.60;;;25.13;;
17566;SDS011;8901;52.088;5.084;2023-02-15T01:46:07;28.97;;;25.63;;
17566;SDS011;8901;52.088;5.084;2023-02-15T01:51:25;30.47;;;27.27;;
17566;SDS011;8901;52.088;5.084;2023-02-15T01:54:02;29.57;;;26.47;;
17566;SDS011;8901;52.088;5.084;2023-02-15T01:56:39;29.80;;;26.73;;
17566;SDS011;8901;52.088;5.084;2023-02-15T01:59:22;30.07;;;26.20;;
17566;SDS011;8901;52.088;5.084;2023-02-15T02:01:50;30.30;;;26.00;;
17566;SDS011;8901;52.088;5.084;2023-02-15T02:04:35;31.50;;;27.30;;
17566;SDS011;8901;52.088;5.084;2023-02-15T02:07:04;32.63;;;28.80;;
17566;SDS011;8901;52.088;5.084;2023-02-15T02:09:33;31.70;;;28.37;;
17566;SDS011;8901;52.088;5.084;2023-02-15T02:12:07;32.17;;;28.30;;
17566;SDS011;8901;52.088;5.084;2023-02-15T02:14:35;33.60;;;30.23;;
17566;SDS011;8901;52.088;5.084;2023-02-15T02:17:04;34.83;;;31.17;;
17566;SDS011;8901;52.088;5.084;2023-02-15T02:22:39;35.73;;;29.67;;
17566;SDS011;8901;52.088;5.084;2023-02-15T02:28:01;33.90;;;30.27;;
17566;SDS011;8901;52.088;5.084;2023-02-15T02:30:49;33.13;;;29.63;;
17566;SDS011;8901;52.088;5.084;2023-02-15T02:33:26;34.23;;;30.70;;
17566;SDS011;8901;52.088;5.084;2023-02-15T02:35:57;33.93;;;30.43;;
17566;SDS011;8901;52.088;5.084;2023-02-15T02:38:27;34.13;;;30.60;;
17566;SDS011;8901;52.088;5.084;2023-02-15T02:40:57;32.97;;;29.57;;
17566;SDS011;8901;52.088;5.084;2023-02-15T02:43:28;36.37;;;30.90;;
17566;SDS011;8901;52.088;5.084;2023-02-15T02:45:57;31.23;;;27.97;;
17566;SDS011;8901;52.088;5.084;2023-02-15T02:48:27;33.10;;;29.70;;
17566;SDS011;8901;52.088;5.084;2023-02-15T02:50:55;33.87;;;30.37;;
17566;SDS011;8901;52.088;5.084;2023-02-15T02:53:22;33.40;;;29.80;;
17566;SDS011;8901;52.088;5.084;2023-02-15T02:55:50;29.93;;;26.77;;
17566;SDS011;8901;52.088;5.084;2023-02-15T02:58:20;28.90;;;25.83;;
17566;SDS011;8901;52.088;5.084;2023-02-15T03:00:49;33.27;;;28.43;;
17566;SDS011;8901;52.088;5.084;2023-02-15T03:03:18;30.77;;;27.50;;
17566;SDS011;8901;52.088;5.084;2023-02-15T03:05:49;31.73;;;28.17;;
17566;SDS011;8901;52.088;5.084;2023-02-15T03:08:17;33.27;;;29.67;;
17566;SDS011;8901;52.088;5.084;2023-02-15T03:10:47;28.33;;;25.40;;
17566;SDS011;8901;52.088;5.084;2023-02-15T03:13:15;28.33;;;25.43;;
17566;SDS011;8901;52.088;5.084;2023-02-15T03:15:42;27.57;;;24.67;;
17566;SDS011;8901;52.088;5.084;2023-02-15T03:18:29;27.93;;;24.43;;
17566;SDS011;8901;52.088;5.084;2023-02-15T03:20:59;26.63;;;23.47;;
17566;SDS011;8901;52.088;5.084;2023-02-15T03:23:27;30.40;;;25.57;;
17566;SDS011;8901;52.088;5.084;2023-02-15T03:25:56;28.03;;;23.43;;
17566;SDS011;8901;52.088;5.084;2023-02-15T03:28:25;29.43;;;25.03;;
17566;SDS011;8901;52.088;5.084;2023-02-15T03:30:55;30.00;;;25.20;;
17566;SDS011;8901;52.088;5.084;2023-02-15T03:33:23;27.40;;;24.50;;
17566;SDS011;8901;52.088;5.084;2023-02-15T03:35:52;27.03;;;24.20;;
17566;SDS011;8901;52.088;5.084;2023-02-15T03:38:26;32.30;;;26.23;;
17566;SDS011;8901;52.088;5.084;2023-02-15T03:40:54;31.77;;;28.57;;
17566;SDS011;8901;52.088;5.084;2023-02-15T03:43:37;29.73;;;26.67;;
17566;SDS011;8901;52.088;5.084;2023-02-15T03:46:08;32.77;;;28.37;;
17566;SDS011;8901;52.088;5.084;2023-02-15T03:48:39;31.60;;;28.30;;
17566;SDS011;8901;52.088;5.084;2023-02-15T03:51:08;31.53;;;28.03;;
17566;SDS011;8901;52.088;5.084;2023-02-15T03:53:56;30.50;;;27.10;;
17566;SDS011;8901;52.088;5.084;2023-02-15T03:56:24;27.10;;;24.23;;
17566;SDS011;8901;52.088;5.084;2023-02-15T03:58:51;27.73;;;24.27;;
17566;SDS011;8901;52.088;5.084;2023-02-15T04:01:36;28.47;;;25.47;;
17566;SDS011;8901;52.088;5.084;2023-02-15T04:04:19;30.20;;;26.97;;
17566;SDS011;8901;52.088;5.084;2023-02-15T04:06:47;27.27;;;24.50;;
17566;SDS011;8901;52.088;5.084;2023-02-15T04:09:15;31.33;;;26.63;;
17566;SDS011;8901;52.088;5.084;2023-02-15T04:12:00;26.30;;;23.60;;
17566;SDS011;8901;52.088;5.084;2023-02-15T04:14:27;27.67;;;24.77;;
17566;SDS011;8901;52.088;5.084;2023-02-15T04:17:12;28.40;;;25.40;;
17566;SDS011;8901;52.088;5.084;2023-02-15T04:19:39;27.70;;;24.80;;
17566;SDS011;8901;52.088;5.084;2023-02-15T04:22:24;27.93;;;24.83;;
17566;SDS011;8901;52.088;5.084;2023-02-15T04:25:10;26.37;;;23.83;;
17566;SDS011;8901;52.088;5.084;2023-02-15T04:27:38;26.00;;;22.87;;
17566;SDS011;8901;52.088;5.084;2023-02-15T04:30:06;30.10;;;25.87;;
17566;SDS011;8901;52.088;5.084;2023-02-15T04:32:33;27.10;;;24.33;;
17566;SDS011;8901;52.088;5.084;2023-02-15T04:35:00;26.70;;;23.80;;
17566;SDS011;8901;52.088;5.084;2023-02-15T04:37:27;28.57;;;25.67;;
17566;SDS011;8901;52.088;5.084;2023-02-15T04:39:54;29.10;;;25.93;;
17566;SDS011;8901;52.088;5.084;2023-02-15T04:42:24;26.60;;;23.90;;
17566;SDS011;8901;52.088;5.084;2023-02-15T04:44:52;27.00;;;24.20;;
17566;SDS011;8901;52.088;5.084;2023-02-15T04:47:19;28.40;;;25.23;;
17566;SDS011;8901;52.088;5.084;2023-02-15T04:49:47;30.83;;;27.67;;
17566;SDS011;8901;52.088;5.084;2023-02-15T04:52:14;30.97;;;27.73;;
17566;SDS011;8901;52.088;5.084;2023-02-15T04:54:42;27.60;;;24.77;;
17566;SDS011;8901;52.088;5.084;2023-02-15T04:57:09;30.73;;;27.63;;
17566;SDS011;8901;52.088;5.084;2023-02-15T04:59:38;31.60;;;28.53;;
17566;SDS011;8901;52.088;5.084;2023-02-15T05:02:05;29.53;;;26.50;;
17566;SDS011;8901;52.088;5.084;2023-02-15T05:04:32;31.30;;;27.80;;
17566;SDS011;8901;52.088;5.084;2023-02-15T05:06:59;28.37;;;25.73;;
17566;SDS011;8901;52.088;5.084;2023-02-15T05:09:26;29.53;;;26.73;;
17566;SDS011;8901;52.088;5.084;2023-02-15T05:11:53;28.67;;;25.77;;
17566;SDS011;8901;52.088;5.084;2023-02-15T05:14:21;30.20;;;27.13;;
17566;SDS011;8901;52.088;5.084;2023-02-15T05:16:49;30.37;;;27.20;;
17566;SDS011;8901;52.088;5.084;2023-02-15T05:19:16;31.83;;;28.53;;
17566;SDS011;8901;52.088;5.084;2023-02-15T05:21:44;30.00;;;26.73;;
17566;SDS011;8901;52.088;5.084;2023-02-15T05:24:11;29.37;;;26.07;;
17566;SDS011;8901;52.088;5.084;2023-02-15T05:26:56;30.93;;;27.73;;
17566;SDS011;8901;52.088;5.084;2023-02-15T05:29:55;25.90;;;23.17;;
17566;SDS011;8901;52.088;5.084;2023-02-15T05:32:23;24.40;;;21.90;;
17566;SDS011;8901;52.088;5.084;2023-02-15T05:34:51;27.73;;;24.90;;
17566;SDS011;8901;52.088;5.084;2023-02-15T05:37:18;25.53;;;23.03;;
17566;SDS011;8901;52.088;5.084;2023-02-15T05:39:45;24.13;;;21.70;;
17566;SDS011;8901;52.088;5.084;2023-02-15T05:42:12;27.60;;;24.90;;
17566;SDS011;8901;52.088;5.084;2023-02-15T05:44:39;29.03;;;26.03;;
17566;SDS011;8901;52.088;5.084;2023-02-15T05:47:06;28.80;;;25.87;;
17566;SDS011;8901;52.088;5.084;2023-02-15T05:49:35;27.13;;;24.33;;
17566;SDS011;8901;52.088;5.084;2023-02-15T05:52:02;26.30;;;23.67;;
17566;SDS011;8901;52.088;5.084;2023-02-15T05:54:29;31.53;;;28.37;;
17566;SDS011;8901;52.088;5.084;2023-02-15T05:56:57;25.83;;;23.10;;
17566;SDS011;8901;52.088;5.084;2023-02-15T05:59:24;27.93;;;25.33;;
17566;SDS011;8901;52.088;5.084;2023-02-15T06:01:51;28.60;;;25.50;;
17566;SDS011;8901;52.088;5.084;2023-02-15T06:04:18;30.20;;;26.17;;
17566;SDS011;8901;52.088;5.084;2023-02-15T06:06:48;27.13;;;24.43;;
17566;SDS011;8901;52.088;5.084;2023-02-15T06:09:15;28.23;;;25.33;;
17566;SDS011;8901;52.088;5.084;2023-02-15T06:11:43;26.70;;;23.93;;
17566;SDS011;8901;52.088;5.084;2023-02-15T06:14:10;29.10;;;26.00;;
17566;SDS011;8901;52.088;5.084;2023-02-15T06:16:37;29.83;;;26.40;;
17566;SDS011;8901;52.088;5.084;2023-02-15T06:19:04;27.83;;;24.93;;
17566;SDS011;8901;52.088;5.084;2023-02-15T06:21:32;26.67;;;24.07;;
17566;SDS011;8901;52.088;5.084;2023-02-15T06:24:00;22.87;;;20.43;;
17566;SDS011;8901;52.088;5.084;2023-02-15T06:26:27;21.17;;;19.03;;
17566;SDS011;8901;52.088;5.084;2023-02-15T06:28:55;22.27;;;19.60;;
17566;SDS011;8901;52.088;5.084;2023-02-15T06:31:22;23.70;;;21.23;;
17566;SDS011;8901;52.088;5.084;2023-02-15T06:33:49;23.37;;;19.77;;
17566;SDS011;8901;52.088;5.084;2023-02-15T06:36:16;25.13;;;20.83;;
17566;SDS011;8901;52.088;5.084;2023-02-15T06:38:43;23.77;;;19.77;;
17566;SDS011;8901;52.088;5.084;2023-02-15T06:41:12;23.67;;;21.13;;
17566;SDS011;8901;52.088;5.084;2023-02-15T06:43:39;23.43;;;20.93;;
17566;SDS011;8901;52.088;5.084;2023-02-15T06:46:06;26.40;;;20.70;;
17566;SDS011;8901;52.088;5.084;2023-02-15T06:48:33;25.93;;;23.10;;
17566;SDS011;8901;52.088;5.084;2023-02-15T06:51:01;26.13;;;22.87;;
17566;SDS011;8901;52.088;5.084;2023-02-15T06:53:28;27.17;;;23.33;;
17566;SDS011;8901;52.088;5.084;2023-02-15T06:55:59;25.17;;;22.70;;
17566;SDS011;8901;52.088;5.084;2023-02-15T06:58:29;25.10;;;22.50;;
17566;SDS011;8901;52.088;5.084;2023-02-15T07:00:56;21.73;;;19.63;;
17566;SDS011;8901;52.088;5.084;2023-02-15T07:03:23;24.57;;;22.10;;
17566;SDS011;8901;52.088;5.084;2023-02-15T07:05:53;26.67;;;23.97;;
17566;SDS011;8901;52.088;5.084;2023-02-15T07:08:20;27.83;;;24.93;;
17566;SDS011;8901;52.088;5.084;2023-02-15T07:10:48;29.30;;;26.40;;
17566;SDS011;8901;52.088;5.084;2023-02-15T07:13:15;28.40;;;25.57;;
17566;SDS011;8901;52.088;5.084;2023-02-15T07:15:43;26.60;;;24.00;;
17566;SDS011;8901;52.088;5.084;2023-02-15T07:18:10;28.50;;;25.60;;
17566;SDS011;8901;52.088;5.084;2023-02-15T07:20:37;26.30;;;23.57;;
17566;SDS011;8901;52.088;5.084;2023-02-15T07:23:06;28.10;;;25.20;;
17566;SDS011;8901;52.088;5.084;2023-02-15T07:25:34;28.40;;;25.27;;
17566;SDS011;8901;52.088;5.084;2023-02-15T07:28:02;29.13;;;25.53;;
17566;SDS011;8901;52.088;5.084;2023-02-15T07:30:29;29.20;;;22.40;;
17566;SDS011;8901;52.088;5.084;2023-02-15T07:32:58;27.37;;;24.57;;
17566;SDS011;8901;52.088;5.084;2023-02-15T07:35:46;24.80;;;22.13;;
17566;SDS011;8901;52.088;5.084;2023-02-15T07:38:14;28.07;;;23.40;;
17566;SDS011;8901;52.088;5.084;2023-02-15T07:40:41;25.00;;;22.30;;
17566;SDS011;8901;52.088;5.084;2023-02-15T07:43:08;23.30;;;20.33;;
17566;SDS011;8901;52.088;5.084;2023-02-15T07:45:35;22.77;;;19.07;;
17566;SDS011;8901;52.088;5.084;2023-02-15T07:48:04;24.57;;;21.93;;
17566;SDS011;8901;52.088;5.084;2023-02-15T07:50:32;27.20;;;23.27;;
17566;SDS011;8901;52.088;5.084;2023-02-15T07:53:00;24.80;;;22.10;;
17566;SDS011;8901;52.088;5.084;2023-02-15T07:55:28;26.87;;;22.30;;
17566;SDS011;8901;52.088;5.084;2023-02-15T07:57:55;30.00;;;23.27;;
17566;SDS011;8901;52.088;5.084;2023-02-15T08:00:22;26.30;;;22.73;;
17566;SDS011;8901;52.088;5.084;2023-02-15T08:02:51;21.13;;;18.70;;
17566;SDS011;8901;52.088;5.084;2023-02-15T08:05:39;24.90;;;22.23;;
17566;SDS011;8901;52.088;5.084;2023-02-15T08:08:07;24.77;;;20.83;;
17566;SDS011;8901;52.088;5.084;2023-02-15T08:10:56;26.00;;;20.50;;
17566;SDS011;8901;52.088;5.084;2023-02-15T08:13:50;28.03;;;23.03;;
17566;SDS011;8901;52.088;5.084;2023-02-15T08:16:25;24.70;;;22.00;;
17566;SDS011;8901;52.088;5.084;2023-02-15T08:18:52;27.57;;;22.07;;
17566;SDS011;8901;52.088;5.084;2023-02-15T08:24:26;24.93;;;22.27;;
17566;SDS011;8901;52.088;5.084;2023-02-15T08:26:53;28.37;;;23.17;;
17566;SDS011;8901;52.088;5.084;2023-02-15T08:29:21;31.00;;;24.50;;
17566;SDS011;8901;52.088;5.084;2023-02-15T08:31:49;27.43;;;21.63;;
17566;SDS011;8901;52.088;5.084;2023-02-15T08:34:17;27.93;;;24.20;;
17566;SDS011;8901;52.088;5.084;2023-02-15T08:36:44;26.23;;;22.07;;
17566;SDS011;8901;52.088;5.084;2023-02-15T08:39:12;29.50;;;25.03;;
17566;SDS011;8901;52.088;5.084;2023-02-15T08:41:41;27.70;;;22.03;;
17566;SDS011;8901;52.088;5.084;2023-02-15T08:44:09;30.30;;;24.27;;
17566;SDS011;8901;52.088;5.084;2023-02-15T08:46:37;28.20;;;24.63;;
17566;SDS011;8901;52.088;5.084;2023-02-15T08:49:05;28.10;;;24.93;;
17566;SDS011;8901;52.088;5.084;2023-02-15T08:51:32;30.83;;;26.00;;
17566;SDS011;8901;52.088;5.084;2023-02-15T08:54:01;28.47;;;24.90;;
17566;SDS011;8901;52.088;5.084;2023-02-15T08:56:30;28.83;;;25.30;;
17566;SDS011;8901;52.088;5.084;2023-02-15T08:58:58;32.40;;;27.70;;
17566;SDS011;8901;52.088;5.084;2023-02-15T09:01:26;33.57;;;27.60;;
17566;SDS011;8901;52.088;5.084;2023-02-15T09:03:55;29.60;;;22.30;;
17566;SDS011;8901;52.088;5.084;2023-02-15T09:06:22;30.43;;;25.93;;
17566;SDS011;8901;52.088;5.084;2023-02-15T09:08:50;32.63;;;25.67;;
17566;SDS011;8901;52.088;5.084;2023-02-15T09:11:17;28.63;;;24.43;;
17566;SDS011;8901;52.088;5.084;2023-02-15T09:13:49;32.03;;;27.70;;
17566;SDS011;8901;52.088;5.084;2023-02-15T09:16:18;34.40;;;27.50;;
17566;SDS011;8901;52.088;5.084;2023-02-15T09:18:45;36.13;;;28.30;;
17566;SDS011;8901;52.088;5.084;2023-02-15T09:21:13;30.13;;;25.83;;
17566;SDS011;8901;52.088;5.084;2023-02-15T09:23:41;28.53;;;25.13;;
17566;SDS011;8901;52.088;5.084;2023-02-15T09:26:09;28.53;;;24.83;;
17566;SDS011;8901;52.088;5.084;2023-02-15T09:28:36;30.43;;;24.63;;
17566;SDS011;8901;52.088;5.084;2023-02-15T09:31:07;29.27;;;25.60;;
17566;SDS011;8901;52.088;5.084;2023-02-15T09:33:36;32.27;;;27.60;;
17566;SDS011;8901;52.088;5.084;2023-02-15T09:36:04;30.33;;;26.77;;
17566;SDS011;8901;52.088;5.084;2023-02-15T09:38:31;32.23;;;28.43;;
17566;SDS011;8901;52.088;5.084;2023-02-15T09:41:05;28.67;;;25.33;;
17566;SDS011;8901;52.088;5.084;2023-02-15T09:43:36;30.47;;;27.07;;
17566;SDS011;8901;52.088;5.084;2023-02-15T09:49:02;34.73;;;27.40;;
17566;SDS011;8901;52.088;5.084;2023-02-15T09:51:41;35.43;;;28.37;;
17566;SDS011;8901;52.088;5.084;2023-02-15T09:54:23;34.30;;;28.37;;
17566;SDS011;8901;52.088;5.084;2023-02-15T09:56:54;34.10;;;28.27;;
17566;SDS011;8901;52.088;5.084;2023-02-15T09:59:26;33.30;;;27.17;;
17566;SDS011;8901;52.088;5.084;2023-02-15T10:01:59;33.37;;;27.77;;
17566;SDS011;8901;52.088;5.084;2023-02-15T10:04:34;37.43;;;29.17;;
17566;SDS011;8901;52.088;5.084;2023-02-15T10:07:09;36.73;;;28.67;;
17566;SDS011;8901;52.088;5.084;2023-02-15T10:09:40;35.17;;;30.10;;
17566;SDS011;8901;52.088;5.084;2023-02-15T10:12:16;34.47;;;30.40;;
17566;SDS011;8901;52.088;5.084;2023-02-15T10:15:02;29.80;;;26.10;;
17566;SDS011;8901;52.088;5.084;2023-02-15T10:17:36;34.60;;;28.93;;
17566;SDS011;8901;52.088;5.084;2023-02-15T10:20:13;34.07;;;29.87;;
17566;SDS011;8901;52.088;5.084;2023-02-15T10:22:48;35.30;;;28.00;;
17566;SDS011;8901;52.088;5.084;2023-02-15T10:25:30;33.47;;;28.67;;
17566;SDS011;8901;52.088;5.084;2023-02-15T10:28:00;37.50;;;28.83;;
17566;SDS011;8901;52.088;5.084;2023-02-15T10:30:32;30.00;;;26.40;;
17566;SDS011;8901;52.088;5.084;2023-02-15T10:33:02;35.97;;;29.67;;
17566;SDS011;8901;52.088;5.084;2023-02-15T10:35:35;34.17;;;28.80;;
17566;SDS011;8901;52.088;5.084;2023-02-15T10:38:10;31.80;;;27.73;;
17566;SDS011;8901;52.088;5.084;2023-02-15T10:40:44;30.00;;;25.47;;
17566;SDS011;8901;52.088;5.084;2023-02-15T10:43:16;37.33;;;31.03;;
17566;SDS011;8901;52.088;5.084;2023-02-15T10:45:49;34.80;;;28.80;;
17566;SDS011;8901;52.088;5.084;2023-02-15T10:48:23;35.27;;;29.87;;
17566;SDS011;8901;52.088;5.084;2023-02-15T10:50:56;35.07;;;30.83;;
17566;SDS011;8901;52.088;5.084;2023-02-15T10:53:26;35.53;;;27.07;;
17566;SDS011;8901;52.088;5.084;2023-02-15T10:55:55;36.60;;;30.37;;
17566;SDS011;8901;52.088;5.084;2023-02-15T10:58:29;36.57;;;31.10;;
17566;SDS011;8901;52.088;5.084;2023-02-15T11:01:01;37.80;;;30.67;;
17566;SDS011;8901;52.088;5.084;2023-02-15T11:03:36;46.10;;;33.13;;
17566;SDS011;8901;52.088;5.084;2023-02-15T11:06:09;41.63;;;32.87;;
17566;SDS011;8901;52.088;5.084;2023-02-15T11:08:39;37.13;;;31.47;;
17566;SDS011;8901;52.088;5.084;2023-02-15T11:11:08;34.30;;;28.43;;
17566;SDS011;8901;52.088;5.084;2023-02-15T11:13:37;36.13;;;30.50;;
17566;SDS011;8901;52.088;5.084;2023-02-15T11:16:06;37.53;;;32.37;;
17566;SDS011;8901;52.088;5.084;2023-02-15T11:18:37;42.23;;;32.70;;
17566;SDS011;8901;52.088;5.084;2023-02-15T11:21:07;37.27;;;33.23;;
17566;SDS011;8901;52.088;5.084;2023-02-15T11:23:39;39.27;;;31.83;;
17566;SDS011;8901;52.088;5.084;2023-02-15T11:26:10;43.67;;;34.20;;
17566;SDS011;8901;52.088;5.084;2023-02-15T11:28:39;34.63;;;30.90;;
17566;SDS011;8901;52.088;5.084;2023-02-15T11:31:11;41.03;;;33.37;;
17566;SDS011;8901;52.088;5.084;2023-02-15T11:33:41;38.93;;;29.77;;
17566;SDS011;8901;52.088;5.084;2023-02-15T11:36:09;36.97;;;30.70;;
17566;SDS011;8901;52.088;5.084;2023-02-15T11:38:39;32.83;;;28.60;;
17566;SDS011;8901;52.088;5.084;2023-02-15T11:41:09;40.63;;;32.73;;
17566;SDS011;8901;52.088;5.084;2023-02-15T11:43:37;28.70;;;25.53;;
17566;SDS011;8901;52.088;5.084;2023-02-15T11:46:07;34.70;;;29.30;;
17566;SDS011;8901;52.088;5.084;2023-02-15T11:48:34;42.23;;;33.67;;
17566;SDS011;8901;52.088;5.084;2023-02-15T11:51:02;39.90;;;35.60;;
17566;SDS011;8901;52.088;5.084;2023-02-15T11:53:31;40.90;;;35.40;;
17566;SDS011;8901;52.088;5.084;2023-02-15T11:56:00;41.87;;;35.17;;
17566;SDS011;8901;52.088;5.084;2023-02-15T11:58:32;39.93;;;32.90;;
17566;SDS011;8901;52.088;5.084;2023-02-15T12:01:13;39.40;;;33.93;;
17566;SDS011;8901;52.088;5.084;2023-02-15T12:03:44;39.83;;;32.33;;
17566;SDS011;8901;52.088;5.084;2023-02-15T12:06:13;41.00;;;33.33;;
17566;SDS011;8901;52.088;5.084;2023-02-15T12:08:42;39.30;;;34.73;;
17566;SDS011;8901;52.088;5.084;2023-02-15T12:11:14;43.93;;;36.20;;
17566;SDS011;8901;52.088;5.084;2023-02-15T12:13:56;34.70;;;30.83;;
17566;SDS011;8901;52.088;5.084;2023-02-15T12:16:23;38.67;;;34.30;;
17566;SDS011;8901;52.088;5.084;2023-02-15T12:18:51;42.87;;;35.90;;
17566;SDS011;8901;52.088;5.084;2023-02-15T12:21:23;39.67;;;35.37;;
17566;SDS011;8901;52.088;5.084;2023-02-15T12:23:52;42.73;;;36.23;;
17566;SDS011;8901;52.088;5.084;2023-02-15T12:26:24;46.40;;;37.30;;
17566;SDS011;8901;52.088;5.084;2023-02-15T12:28:52;42.87;;;36.57;;
17566;SDS011;8901;52.088;5.084;2023-02-15T12:31:24;41.53;;;37.00;;
17566;SDS011;8901;52.088;5.084;2023-02-15T12:33:52;41.77;;;36.43;;
17566;SDS011;8901;52.088;5.084;2023-02-15T12:36:20;45.97;;;40.53;;
17566;SDS011;8901;52.088;5.084;2023-02-15T12:39:02;48.50;;;38.83;;
17566;SDS011;8901;52.088;5.084;2023-02-15T12:41:32;42.40;;;36.93;;
17566;SDS011;8901;52.088;5.084;2023-02-15T12:44:04;33.77;;;30.13;;
17566;SDS011;8901;52.088;5.084;2023-02-15T12:46:31;40.30;;;35.57;;
17566;SDS011;8901;52.088;5.084;2023-02-15T12:49:06;44.23;;;36.87;;
17566;SDS011;8901;52.088;5.084;2023-02-15T12:51:42;46.83;;;37.37;;
17566;SDS011;8901;52.088;5.084;2023-02-15T12:54:15;40.43;;;34.87;;
17566;SDS011;8901;52.088;5.084;2023-02-15T12:56:44;43.30;;;37.13;;
17566;SDS011;8901;52.088;5.084;2023-02-15T12:59:12;43.10;;;36.23;;
17566;SDS011;8901;52.088;5.084;2023-02-15T13:01:40;40.53;;;33.77;;
17566;SDS011;8901;52.088;5.084;2023-02-15T13:04:14;38.43;;;33.20;;
17566;SDS011;8901;52.088;5.084;2023-02-15T13:06:46;38.83;;;32.70;;
17566;SDS011;8901;52.088;5.084;2023-02-15T13:09:15;41.30;;;35.50;;
17566;SDS011;8901;52.088;5.084;2023-02-15T13:11:42;39.27;;;31.10;;
17566;SDS011;8901;52.088;5.084;2023-02-15T13:14:17;46.20;;;34.50;;
17566;SDS011;8901;52.088;5.084;2023-02-15T13:16:45;36.87;;;32.87;;
17566;SDS011;8901;52.088;5.084;2023-02-15T13:19:26;41.43;;;33.93;;
17566;SDS011;8901;52.088;5.084;2023-02-15T13:22:06;36.00;;;32.10;;
17566;SDS011;8901;52.088;5.084;2023-02-15T13:24:36;42.13;;;37.20;;
17566;SDS011;8901;52.088;5.084;2023-02-15T13:27:15;38.93;;;33.90;;
17566;SDS011;8901;52.088;5.084;2023-02-15T13:30:19;45.60;;;35.30;;
17566;SDS011;8901;52.088;5.084;2023-02-15T13:33:00;39.63;;;33.27;;
17566;SDS011;8901;52.088;5.084;2023-02-15T13:43:56;40.97;;;36.47;;
17566;SDS011;8901;52.088;5.084;2023-02-15T13:46:31;38.67;;;32.53;;
17566;SDS011;8901;52.088;5.084;2023-02-15T13:55:26;41.90;;;35.57;;
17566;SDS011;8901;52.088;5.084;2023-02-15T14:09:14;37.03;;;31.80;;
17566;SDS011;8901;52.088;5.084;2023-02-15T14:11:44;35.23;;;31.53;;
17566;SDS011;8901;52.088;5.084;2023-02-15T14:19:57;44.30;;;39.27;;
17566;SDS011;8901;52.088;5.084;2023-02-15T14:22:34;48.13;;;36.67;;
17566;SDS011;8901;52.088;5.084;2023-02-15T14:40:03;41.07;;;35.47;;
17566;SDS011;8901;52.088;5.084;2023-02-15T14:45:55;41.70;;;37.20;;
17566;SDS011;8901;52.088;5.084;2023-02-15T14:48:30;44.20;;;39.23;;
17566;SDS011;8901;52.088;5.084;2023-02-15T14:54:01;43.20;;;37.13;;
17566;SDS011;8901;52.088;5.084;2023-02-15T14:59:37;39.77;;;35.07;;
17566;SDS011;8901;52.088;5.084;2023-02-15T15:02:16;43.30;;;38.17;;
17566;SDS011;8901;52.088;5.084;2023-02-15T15:07:43;42.33;;;37.87;;
17566;SDS011;8901;52.088;5.084;2023-02-15T15:13:35;40.30;;;35.77;;
17566;SDS011;8901;52.088;5.084;2023-02-15T15:25:39;40.27;;;35.90;;
17566;SDS011;8901;52.088;5.084;2023-02-15T15:31:04;45.80;;;40.60;;
17566;SDS011;8901;52.088;5.084;2023-02-15T15:33:57;42.33;;;37.73;;
17566;SDS011;8901;52.088;5.084;2023-02-15T15:50:50;50.73;;;40.83;;
17566;SDS011;8901;52.088;5.084;2023-02-15T15:53:24;46.13;;;36.20;;
17566;SDS011;8901;52.088;5.084;2023-02-15T15:55:54;44.93;;;38.50;;
17566;SDS011;8901;52.088;5.084;2023-02-15T15:58:32;41.07;;;36.60;;
17566;SDS011;8901;52.088;5.084;2023-02-15T16:03:41;44.90;;;40.00;;
17566;SDS011;8901;52.088;5.084;2023-02-15T16:06:32;41.13;;;36.57;;
17566;SDS011;8901;52.088;5.084;2023-02-15T16:09:09;39.70;;;34.90;;
17566;SDS011;8901;52.088;5.084;2023-02-15T16:11:37;38.93;;;33.63;;
17566;SDS011;8901;52.088;5.084;2023-02-15T16:14:09;41.00;;;36.70;;
17566;SDS011;8901;52.088;5.084;2023-02-15T16:16:38;47.87;;;40.27;;
17566;SDS011;8901;52.088;5.084;2023-02-15T16:19:14;41.53;;;36.70;;
17566;SDS011;8901;52.088;5.084;2023-02-15T16:22:01;44.40;;;39.63;;
17566;SDS011;8901;52.088;5.084;2023-02-15T16:24:35;46.57;;;38.77;;
17566;SDS011;8901;52.088;5.084;2023-02-15T16:29:51;45.20;;;37.30;;
17566;SDS011;8901;52.088;5.084;2023-02-15T16:32:19;41.00;;;36.53;;
17566;SDS011;8901;52.088;5.084;2023-02-15T16:40:42;46.07;;;39.63;;
17566;SDS011;8901;52.088;5.084;2023-02-15T16:43:23;41.23;;;35.40;;
17566;SDS011;8901;52.088;5.084;2023-02-15T16:46:03;40.23;;;35.90;;
17566;SDS011;8901;52.088;5.084;2023-02-15T16:51:30;44.73;;;39.40;;
17566;SDS011;8901;52.088;5.084;2023-02-15T16:54:07;47.13;;;39.10;;
17566;SDS011;8901;52.088;5.084;2023-02-15T16:56:48;41.83;;;37.13;;
17566;SDS011;8901;52.088;5.084;2023-02-15T17:02:18;40.43;;;36.03;;
17566;SDS011;8901;52.088;5.084;2023-02-15T17:04:57;44.43;;;39.60;;
17566;SDS011;8901;52.088;5.084;2023-02-15T17:07:34;45.03;;;38.97;;
17566;SDS011;8901;52.088;5.084;2023-02-15T17:13:19;46.03;;;37.43;;
17566;SDS011;8901;52.088;5.084;2023-02-15T17:18:29;44.90;;;38.83;;
17566;SDS011;8901;52.088;5.084;2023-02-15T17:24:00;45.00;;;38.17;;
17566;SDS011;8901;52.088;5.084;2023-02-15T17:26:31;45.43;;;37.47;;
17566;SDS011;8901;52.088;5.084;2023-02-15T17:32:10;43.53;;;38.83;;
17566;SDS011;8901;52.088;5.084;2023-02-15T17:43:29;45.93;;;39.23;;
17566;SDS011;8901;52.088;5.084;2023-02-15T17:45:58;51.80;;;40.87;;
17566;SDS011;8901;52.088;5.084;2023-02-15T17:48:33;44.53;;;36.90;;
17566;SDS011;8901;52.088;5.084;2023-02-15T17:51:16;50.03;;;39.90;;
17566;SDS011;8901;52.088;5.084;2023-02-15T17:53:45;54.07;;;40.63;;
17566;SDS011;8901;52.088;5.084;2023-02-15T17:56:26;51.27;;;41.10;;
17566;SDS011;8901;52.088;5.084;2023-02-15T17:59:00;47.50;;;39.83;;
17566;SDS011;8901;52.088;5.084;2023-02-15T18:01:34;49.73;;;39.30;;